sensor_id;sensor_type;location;lat;lon;timestamp;P1;durP1;ratioP1;P2;durP2;ratioP2
22046;SDS011;11187;49.412;20.956;2023-04-15T00:02:00;15.90;;;15.00;;
22046;SDS011;11187;49.412;20.956;2023-04-15T00:04:33;17.35;;;16.13;;
22046;SDS011;11187;49.412;20.956;2023-04-15T00:07:27;16.23;;;15.23;;
22046;SDS011;11187;49.412;20.956;2023-04-15T00:10:21;16.63;;;15.63;;
22046;SDS011;11187;49.412;20.956;2023-04-15T00:13:15;16.60;;;15.60;;
22046;SDS011;11187;49.412;20.956;2023-04-15T00:16:09;15.65;;;14.73;;
22046;SDS011;11187;49.412;20.956;2023-04-15T00:18:43;16.17;;;14.93;;
22046;SDS011;11187;49.412;20.956;2023-04-15T00:21:30;16.00;;;15.10;;
22046;SDS011;11187;49.412;20.956;2023-04-15T00:24:04;14.68;;;13.57;;
22046;SDS011;11187;49.412;20.956;2023-04-15T00:26:51;15.43;;;14.38;;
22046;SDS011;11187;49.412;20.956;2023-04-15T00:29:24;16.05;;;15.05;;
22046;SDS011;11187;49.412;20.956;2023-04-15T00:32:12;15.50;;;14.50;;
22046;SDS011;11187;49.412;20.956;2023-04-15T00:34:45;15.88;;;14.98;;
22046;SDS011;11187;49.412;20.956;2023-04-15T00:37:32;16.38;;;15.38;;
22046;SDS011;11187;49.412;20.956;2023-04-15T00:40:06;16.30;;;15.30;;
22046;SDS011;11187;49.412;20.956;2023-04-15T00:43:05;16.75;;;15.75;;
22046;SDS011;11187;49.412;20.956;2023-04-15T00:45:38;15.32;;;14.43;;
22046;SDS011;11187;49.412;20.956;2023-04-15T00:48:26;15.95;;;15.05;;
22046;SDS011;11187;49.412;20.956;2023-04-15T00:50:59;16.27;;;15.27;;
22046;SDS011;11187;49.412;20.956;2023-04-15T00:53:46;16.83;;;15.82;;
22046;SDS011;11187;49.412;20.956;2023-04-15T00:56:19;16.15;;;15.05;;
22046;SDS011;11187;49.412;20.956;2023-04-15T00:59:14;16.20;;;15.05;;
22046;SDS011;11187;49.412;20.956;2023-04-15T01:02:10;14.13;;;13.23;;
22046;SDS011;11187;49.412;20.956;2023-04-15T01:04:43;15.05;;;14.05;;
22046;SDS011;11187;49.412;20.956;2023-04-15T01:07:30;16.15;;;15.15;;
22046;SDS011;11187;49.412;20.956;2023-04-15T01:10:24;16.45;;;15.35;;
22046;SDS011;11187;49.412;20.956;2023-04-15T01:12:57;14.85;;;13.95;;
22046;SDS011;11187;49.412;20.956;2023-04-15T01:15:51;16.25;;;15.25;;
22046;SDS011;11187;49.412;20.956;2023-04-15T01:18:25;16.80;;;15.70;;
22046;SDS011;11187;49.412;20.956;2023-04-15T01:21:20;16.90;;;15.80;;
22046;SDS011;11187;49.412;20.956;2023-04-15T01:24:16;15.85;;;14.88;;
22046;SDS011;11187;49.412;20.956;2023-04-15T01:26:50;16.25;;;15.07;;
22046;SDS011;11187;49.412;20.956;2023-04-15T01:29:37;15.38;;;14.48;;
22046;SDS011;11187;49.412;20.956;2023-04-15T01:32:11;15.32;;;14.40;;
22046;SDS011;11187;49.412;20.956;2023-04-15T01:35:16;15.40;;;14.50;;
22046;SDS011;11187;49.412;20.956;2023-04-15T01:37:49;14.88;;;13.88;;
22046;SDS011;11187;49.412;20.956;2023-04-15T01:40:36;15.48;;;14.57;;
22046;SDS011;11187;49.412;20.956;2023-04-15T01:43:09;15.48;;;14.50;;
22046;SDS011;11187;49.412;20.956;2023-04-15T01:45:56;15.52;;;14.52;;
22046;SDS011;11187;49.412;20.956;2023-04-15T01:48:29;15.30;;;14.30;;
22046;SDS011;11187;49.412;20.956;2023-04-15T01:51:16;16.77;;;15.68;;
22046;SDS011;11187;49.412;20.956;2023-04-15T01:53:49;15.88;;;14.77;;
22046;SDS011;11187;49.412;20.956;2023-04-15T01:56:36;16.27;;;15.27;;
22046;SDS011;11187;49.412;20.956;2023-04-15T01:59:09;15.60;;;14.63;;
22046;SDS011;11187;49.412;20.956;2023-04-15T02:01:56;15.55;;;14.55;;
22046;SDS011;11187;49.412;20.956;2023-04-15T02:04:29;15.13;;;14.23;;
22046;SDS011;11187;49.412;20.956;2023-04-15T02:07:23;15.70;;;14.63;;
22046;SDS011;11187;49.412;20.956;2023-04-15T02:10:18;16.88;;;15.65;;
22046;SDS011;11187;49.412;20.956;2023-04-15T02:13:12;14.82;;;13.75;;
22046;SDS011;11187;49.412;20.956;2023-04-15T02:15:46;13.88;;;12.98;;
22046;SDS011;11187;49.412;20.956;2023-04-15T02:18:34;15.57;;;14.57;;
22046;SDS011;11187;49.412;20.956;2023-04-15T02:21:07;14.80;;;13.90;;
22046;SDS011;11187;49.412;20.956;2023-04-15T02:24:01;14.43;;;13.52;;
22046;SDS011;11187;49.412;20.956;2023-04-15T02:26:55;15.20;;;14.10;;
22046;SDS011;11187;49.412;20.956;2023-04-15T02:29:30;15.95;;;14.95;;
22046;SDS011;11187;49.412;20.956;2023-04-15T02:32:17;15.77;;;14.77;;
22046;SDS011;11187;49.412;20.956;2023-04-15T02:34:50;13.93;;;12.98;;
22046;SDS011;11187;49.412;20.956;2023-04-15T02:37:37;15.75;;;14.55;;
22046;SDS011;11187;49.412;20.956;2023-04-15T02:40:15;15.85;;;14.85;;
22046;SDS011;11187;49.412;20.956;2023-04-15T02:43:03;15.35;;;14.45;;
22046;SDS011;11187;49.412;20.956;2023-04-15T02:45:38;15.45;;;14.35;;
22046;SDS011;11187;49.412;20.956;2023-04-15T02:48:25;14.48;;;13.52;;
22046;SDS011;11187;49.412;20.956;2023-04-15T02:51:11;15.27;;;14.27;;
22046;SDS011;11187;49.412;20.956;2023-04-15T02:54:09;14.40;;;13.40;;
22046;SDS011;11187;49.412;20.956;2023-04-15T02:56:42;15.13;;;14.20;;
22046;SDS011;11187;49.412;20.956;2023-04-15T02:59:29;15.82;;;14.80;;
22046;SDS011;11187;49.412;20.956;2023-04-15T03:02:02;16.35;;;15.25;;
22046;SDS011;11187;49.412;20.956;2023-04-15T03:04:49;14.75;;;13.85;;
22046;SDS011;11187;49.412;20.956;2023-04-15T03:07:22;15.13;;;14.13;;
22046;SDS011;11187;49.412;20.956;2023-04-15T03:10:09;14.60;;;13.60;;
22046;SDS011;11187;49.412;20.956;2023-04-15T03:12:42;15.00;;;14.10;;
22046;SDS011;11187;49.412;20.956;2023-04-15T03:15:29;15.02;;;14.13;;
22046;SDS011;11187;49.412;20.956;2023-04-15T03:18:02;15.32;;;14.32;;
22046;SDS011;11187;49.412;20.956;2023-04-15T03:20:49;15.18;;;14.25;;
22046;SDS011;11187;49.412;20.956;2023-04-15T03:23:22;16.38;;;15.27;;
22046;SDS011;11187;49.412;20.956;2023-04-15T03:26:09;15.43;;;14.27;;
22046;SDS011;11187;49.412;20.956;2023-04-15T03:28:42;15.15;;;14.15;;
22046;SDS011;11187;49.412;20.956;2023-04-15T03:31:36;15.80;;;14.73;;
22046;SDS011;11187;49.412;20.956;2023-04-15T03:34:12;15.98;;;14.98;;
22046;SDS011;11187;49.412;20.956;2023-04-15T03:37:02;14.77;;;13.80;;
22046;SDS011;11187;49.412;20.956;2023-04-15T03:39:35;16.58;;;15.57;;
22046;SDS011;11187;49.412;20.956;2023-04-15T03:42:22;15.80;;;14.73;;
22046;SDS011;11187;49.412;20.956;2023-04-15T03:44:58;15.57;;;14.55;;
22046;SDS011;11187;49.412;20.956;2023-04-15T03:47:46;15.20;;;14.30;;
22046;SDS011;11187;49.412;20.956;2023-04-15T03:50:19;16.50;;;15.48;;
22046;SDS011;11187;49.412;20.956;2023-04-15T03:53:13;16.27;;;15.20;;
22046;SDS011;11187;49.412;20.956;2023-04-15T03:56:07;15.88;;;14.85;;
22046;SDS011;11187;49.412;20.956;2023-04-15T03:58:40;15.55;;;14.55;;
22046;SDS011;11187;49.412;20.956;2023-04-15T04:01:27;14.93;;;13.90;;
22046;SDS011;11187;49.412;20.956;2023-04-15T04:04:00;15.30;;;14.20;;
22046;SDS011;11187;49.412;20.956;2023-04-15T04:06:47;14.57;;;13.35;;
22046;SDS011;11187;49.412;20.956;2023-04-15T04:09:41;15.38;;;14.32;;
22046;SDS011;11187;49.412;20.956;2023-04-15T04:12:35;14.35;;;13.35;;
22046;SDS011;11187;49.412;20.956;2023-04-15T04:15:08;14.30;;;13.30;;
22046;SDS011;11187;49.412;20.956;2023-04-15T04:17:55;13.68;;;12.68;;
22046;SDS011;11187;49.412;20.956;2023-04-15T04:20:29;14.48;;;13.55;;
22046;SDS011;11187;49.412;20.956;2023-04-15T04:23:16;15.48;;;14.18;;
22046;SDS011;11187;49.412;20.956;2023-04-15T04:25:49;14.77;;;13.88;;
22046;SDS011;11187;49.412;20.956;2023-04-15T04:28:36;14.82;;;13.55;;
22046;SDS011;11187;49.412;20.956;2023-04-15T04:31:11;15.30;;;13.55;;
22046;SDS011;11187;49.412;20.956;2023-04-15T04:33:58;14.70;;;13.70;;
22046;SDS011;11187;49.412;20.956;2023-04-15T04:36:31;16.27;;;15.07;;
22046;SDS011;11187;49.412;20.956;2023-04-15T04:39:18;14.93;;;13.77;;
22046;SDS011;11187;49.412;20.956;2023-04-15T04:41:51;15.60;;;14.35;;
22046;SDS011;11187;49.412;20.956;2023-04-15T04:44:45;14.40;;;13.50;;
22046;SDS011;11187;49.412;20.956;2023-04-15T04:47:39;13.90;;;12.90;;
22046;SDS011;11187;49.412;20.956;2023-04-15T04:50:12;14.93;;;13.82;;
22046;SDS011;11187;49.412;20.956;2023-04-15T04:52:59;15.25;;;14.25;;
22046;SDS011;11187;49.412;20.956;2023-04-15T04:55:33;14.65;;;13.63;;
22046;SDS011;11187;49.412;20.956;2023-04-15T04:58:27;14.93;;;13.93;;
22046;SDS011;11187;49.412;20.956;2023-04-15T05:01:21;15.90;;;14.77;;
22046;SDS011;11187;49.412;20.956;2023-04-15T05:03:54;15.02;;;13.80;;
22046;SDS011;11187;49.412;20.956;2023-04-15T05:06:49;14.75;;;13.75;;
22046;SDS011;11187;49.412;20.956;2023-04-15T05:09:43;13.73;;;12.70;;
22046;SDS011;11187;49.412;20.956;2023-04-15T05:12:16;14.23;;;13.32;;
22046;SDS011;11187;49.412;20.956;2023-04-15T05:15:04;13.77;;;12.57;;
22046;SDS011;11187;49.412;20.956;2023-04-15T05:17:38;14.65;;;13.55;;
22046;SDS011;11187;49.412;20.956;2023-04-15T05:20:25;12.63;;;11.68;;
22046;SDS011;11187;49.412;20.956;2023-04-15T05:22:58;12.85;;;11.95;;
22046;SDS011;11187;49.412;20.956;2023-04-15T05:25:52;13.15;;;12.20;;
22046;SDS011;11187;49.412;20.956;2023-04-15T05:28:46;12.63;;;11.73;;
22046;SDS011;11187;49.412;20.956;2023-04-15T05:31:40;13.18;;;12.05;;
22046;SDS011;11187;49.412;20.956;2023-04-15T05:34:34;13.43;;;12.43;;
22046;SDS011;11187;49.412;20.956;2023-04-15T05:37:07;12.02;;;11.13;;
22046;SDS011;11187;49.412;20.956;2023-04-15T05:39:54;12.73;;;11.68;;
22046;SDS011;11187;49.412;20.956;2023-04-15T05:42:28;13.52;;;12.43;;
22046;SDS011;11187;49.412;20.956;2023-04-15T05:45:15;12.05;;;11.13;;
22046;SDS011;11187;49.412;20.956;2023-04-15T05:47:48;11.93;;;10.93;;
22046;SDS011;11187;49.412;20.956;2023-04-15T05:50:35;12.45;;;11.65;;
22046;SDS011;11187;49.412;20.956;2023-04-15T05:53:08;12.73;;;11.63;;
22046;SDS011;11187;49.412;20.956;2023-04-15T05:56:02;12.07;;;11.18;;
22046;SDS011;11187;49.412;20.956;2023-04-15T05:58:56;11.07;;;10.18;;
22046;SDS011;11187;49.412;20.956;2023-04-15T06:01:29;11.55;;;10.75;;
22046;SDS011;11187;49.412;20.956;2023-04-15T06:04:16;11.68;;;10.82;;
22046;SDS011;11187;49.412;20.956;2023-04-15T06:06:49;12.45;;;11.43;;
22046;SDS011;11187;49.412;20.956;2023-04-15T06:09:36;11.52;;;10.65;;
22046;SDS011;11187;49.412;20.956;2023-04-15T06:12:09;11.77;;;10.70;;
22046;SDS011;11187;49.412;20.956;2023-04-15T06:14:56;11.98;;;10.77;;
22046;SDS011;11187;49.412;20.956;2023-04-15T06:17:32;12.23;;;11.32;;
22046;SDS011;11187;49.412;20.956;2023-04-15T06:20:26;11.82;;;10.98;;
22046;SDS011;11187;49.412;20.956;2023-04-15T06:22:59;11.60;;;10.80;;
22046;SDS011;11187;49.412;20.956;2023-04-15T06:25:46;12.60;;;11.68;;
22046;SDS011;11187;49.412;20.956;2023-04-15T06:28:19;12.50;;;11.60;;
22046;SDS011;11187;49.412;20.956;2023-04-15T06:31:06;11.82;;;10.98;;
22046;SDS011;11187;49.412;20.956;2023-04-15T06:33:42;11.88;;;10.90;;
22046;SDS011;11187;49.412;20.956;2023-04-15T06:36:29;13.35;;;12.35;;
22046;SDS011;11187;49.412;20.956;2023-04-15T06:39:02;13.23;;;12.05;;
22046;SDS011;11187;49.412;20.956;2023-04-15T06:41:56;22.13;;;17.63;;
22046;SDS011;11187;49.412;20.956;2023-04-15T06:44:50;18.52;;;15.35;;
22046;SDS011;11187;49.412;20.956;2023-04-15T06:47:23;14.63;;;13.35;;
22046;SDS011;11187;49.412;20.956;2023-04-15T06:50:18;13.80;;;12.75;;
22046;SDS011;11187;49.412;20.956;2023-04-15T06:53:12;14.05;;;12.95;;
22046;SDS011;11187;49.412;20.956;2023-04-15T06:55:45;16.63;;;13.13;;
22046;SDS011;11187;49.412;20.956;2023-04-15T06:58:39;13.65;;;12.52;;
22046;SDS011;11187;49.412;20.956;2023-04-15T07:01:33;12.93;;;11.90;;
22046;SDS011;11187;49.412;20.956;2023-04-15T07:04:27;13.90;;;12.90;;
22046;SDS011;11187;49.412;20.956;2023-04-15T07:07:00;12.95;;;11.85;;
22046;SDS011;11187;49.412;20.956;2023-04-15T07:09:48;13.52;;;12.57;;
22046;SDS011;11187;49.412;20.956;2023-04-15T07:12:21;12.98;;;11.98;;
22046;SDS011;11187;49.412;20.956;2023-04-15T07:15:15;13.43;;;12.38;;
22046;SDS011;11187;49.412;20.956;2023-04-15T07:17:48;14.00;;;12.80;;
22046;SDS011;11187;49.412;20.956;2023-04-15T07:20:42;14.10;;;12.98;;
22046;SDS011;11187;49.412;20.956;2023-04-15T07:23:36;15.45;;;13.10;;
22046;SDS011;11187;49.412;20.956;2023-04-15T07:26:09;13.25;;;12.15;;
22046;SDS011;11187;49.412;20.956;2023-04-15T07:28:56;13.32;;;12.07;;
22046;SDS011;11187;49.412;20.956;2023-04-15T07:31:29;13.80;;;12.70;;
22046;SDS011;11187;49.412;20.956;2023-04-15T07:34:16;14.18;;;12.75;;
22046;SDS011;11187;49.412;20.956;2023-04-15T07:36:50;13.82;;;12.52;;
22046;SDS011;11187;49.412;20.956;2023-04-15T07:39:37;13.77;;;12.48;;
22046;SDS011;11187;49.412;20.956;2023-04-15T07:42:10;13.43;;;12.23;;
22046;SDS011;11187;49.412;20.956;2023-04-15T07:45:04;12.95;;;11.90;;
22046;SDS011;11187;49.412;20.956;2023-04-15T07:47:58;14.07;;;12.88;;
22046;SDS011;11187;49.412;20.956;2023-04-15T07:50:34;13.73;;;12.45;;
22046;SDS011;11187;49.412;20.956;2023-04-15T07:53:21;13.80;;;12.40;;
22046;SDS011;11187;49.412;20.956;2023-04-15T07:55:54;14.98;;;13.63;;
22046;SDS011;11187;49.412;20.956;2023-04-15T07:58:41;14.75;;;13.48;;
22046;SDS011;11187;49.412;20.956;2023-04-15T08:01:15;13.88;;;12.73;;
22046;SDS011;11187;49.412;20.956;2023-04-15T08:04:02;14.48;;;13.27;;
22046;SDS011;11187;49.412;20.956;2023-04-15T08:06:36;14.30;;;13.10;;
22046;SDS011;11187;49.412;20.956;2023-04-15T08:09:30;14.93;;;13.73;;
22046;SDS011;11187;49.412;20.956;2023-04-15T08:12:24;15.52;;;14.18;;
22046;SDS011;11187;49.412;20.956;2023-04-15T08:15:19;13.98;;;12.88;;
22046;SDS011;11187;49.412;20.956;2023-04-15T08:18:14;15.10;;;13.90;;
22046;SDS011;11187;49.412;20.956;2023-04-15T08:20:47;14.43;;;13.32;;
22046;SDS011;11187;49.412;20.956;2023-04-15T08:23:34;14.82;;;13.63;;
22046;SDS011;11187;49.412;20.956;2023-04-15T08:26:07;15.65;;;14.35;;
22046;SDS011;11187;49.412;20.956;2023-04-15T08:28:54;16.13;;;14.82;;
22046;SDS011;11187;49.412;20.956;2023-04-15T08:31:28;20.60;;;18.67;;
22046;SDS011;11187;49.412;20.956;2023-04-15T08:34:15;16.98;;;15.57;;
22046;SDS011;11187;49.412;20.956;2023-04-15T08:36:48;15.50;;;13.80;;
22046;SDS011;11187;49.412;20.956;2023-04-15T08:39:47;15.85;;;14.65;;
22046;SDS011;11187;49.412;20.956;2023-04-15T08:42:40;14.50;;;13.40;;
22046;SDS011;11187;49.412;20.956;2023-04-15T08:45:37;17.75;;;16.25;;
22046;SDS011;11187;49.412;20.956;2023-04-15T08:48:32;14.38;;;13.23;;
22046;SDS011;11187;49.412;20.956;2023-04-15T08:51:27;16.05;;;14.75;;
22046;SDS011;11187;49.412;20.956;2023-04-15T08:54:01;15.15;;;13.85;;
22046;SDS011;11187;49.412;20.956;2023-04-15T08:57:10;16.05;;;14.73;;
22046;SDS011;11187;49.412;20.956;2023-04-15T09:00:04;16.35;;;15.05;;
22046;SDS011;11187;49.412;20.956;2023-04-15T09:02:38;14.60;;;13.32;;
22046;SDS011;11187;49.412;20.956;2023-04-15T09:05:26;13.93;;;12.75;;
22046;SDS011;11187;49.412;20.956;2023-04-15T09:08:00;15.80;;;14.50;;
22046;SDS011;11187;49.412;20.956;2023-04-15T09:10:47;14.95;;;13.80;;
22046;SDS011;11187;49.412;20.956;2023-04-15T09:13:20;15.45;;;14.20;;
22046;SDS011;11187;49.412;20.956;2023-04-15T09:16:14;16.67;;;15.38;;
22046;SDS011;11187;49.412;20.956;2023-04-15T09:19:29;14.23;;;13.05;;
22046;SDS011;11187;49.412;20.956;2023-04-15T09:22:02;15.68;;;14.57;;
22046;SDS011;11187;49.412;20.956;2023-04-15T09:24:49;15.25;;;13.90;;
22046;SDS011;11187;49.412;20.956;2023-04-15T09:27:22;14.40;;;13.30;;
22046;SDS011;11187;49.412;20.956;2023-04-15T09:30:16;13.90;;;12.90;;
22046;SDS011;11187;49.412;20.956;2023-04-15T09:33:10;13.40;;;12.23;;
22046;SDS011;11187;49.412;20.956;2023-04-15T09:36:07;14.57;;;13.48;;
22046;SDS011;11187;49.412;20.956;2023-04-15T09:38:54;14.25;;;13.25;;
22046;SDS011;11187;49.412;20.956;2023-04-15T09:41:42;13.57;;;12.63;;
22046;SDS011;11187;49.412;20.956;2023-04-15T09:44:23;13.25;;;12.27;;
22046;SDS011;11187;49.412;20.956;2023-04-15T09:47:30;14.98;;;13.68;;
22046;SDS011;11187;49.412;20.956;2023-04-15T09:50:04;14.02;;;13.02;;
22046;SDS011;11187;49.412;20.956;2023-04-15T09:52:58;14.52;;;13.52;;
22046;SDS011;11187;49.412;20.956;2023-04-15T09:55:56;15.60;;;14.50;;
22046;SDS011;11187;49.412;20.956;2023-04-15T09:58:55;13.90;;;13.00;;
22046;SDS011;11187;49.412;20.956;2023-04-15T10:01:49;13.43;;;12.48;;
22046;SDS011;11187;49.412;20.956;2023-04-15T10:04:43;16.10;;;15.00;;
22046;SDS011;11187;49.412;20.956;2023-04-15T10:07:19;15.45;;;14.30;;
22046;SDS011;11187;49.412;20.956;2023-04-15T10:10:14;14.63;;;13.52;;
22046;SDS011;11187;49.412;20.956;2023-04-15T10:13:09;15.25;;;14.15;;
22046;SDS011;11187;49.412;20.956;2023-04-15T10:15:44;19.52;;;16.23;;
22046;SDS011;11187;49.412;20.956;2023-04-15T10:18:55;15.45;;;14.07;;
22046;SDS011;11187;49.412;20.956;2023-04-15T10:21:35;13.13;;;12.23;;
22046;SDS011;11187;49.412;20.956;2023-04-15T10:24:16;14.15;;;13.15;;
22046;SDS011;11187;49.412;20.956;2023-04-15T10:26:57;12.85;;;11.63;;
22046;SDS011;11187;49.412;20.956;2023-04-15T10:29:31;14.25;;;13.25;;
22046;SDS011;11187;49.412;20.956;2023-04-15T10:32:26;13.57;;;12.57;;
22046;SDS011;11187;49.412;20.956;2023-04-15T10:35:20;15.75;;;14.35;;
22046;SDS011;11187;49.412;20.956;2023-04-15T10:37:54;17.83;;;16.10;;
22046;SDS011;11187;49.412;20.956;2023-04-15T10:40:48;19.92;;;16.83;;
22046;SDS011;11187;49.412;20.956;2023-04-15T10:43:25;16.90;;;15.43;;
22046;SDS011;11187;49.412;20.956;2023-04-15T10:46:12;17.50;;;14.68;;
22046;SDS011;11187;49.412;20.956;2023-04-15T10:48:51;14.35;;;13.20;;
22046;SDS011;11187;49.412;20.956;2023-04-15T10:51:49;22.95;;;18.13;;
22046;SDS011;11187;49.412;20.956;2023-04-15T10:54:45;22.65;;;15.45;;
22046;SDS011;11187;49.412;20.956;2023-04-15T10:57:22;16.60;;;15.10;;
22046;SDS011;11187;49.412;20.956;2023-04-15T11:00:10;15.32;;;14.07;;
22046;SDS011;11187;49.412;20.956;2023-04-15T11:05:50;16.67;;;15.38;;
22046;SDS011;11187;49.412;20.956;2023-04-15T11:12:08;16.33;;;14.93;;
22046;SDS011;11187;49.412;20.956;2023-04-15T11:18:35;14.95;;;13.75;;
22046;SDS011;11187;49.412;20.956;2023-04-15T11:21:29;15.13;;;14.07;;
22046;SDS011;11187;49.412;20.956;2023-04-15T11:24:23;13.45;;;12.52;;
22046;SDS011;11187;49.412;20.956;2023-04-15T11:27:23;14.55;;;13.45;;
22046;SDS011;11187;49.412;20.956;2023-04-15T11:30:19;14.15;;;13.02;;
22046;SDS011;11187;49.412;20.956;2023-04-15T11:32:57;13.00;;;12.00;;
22046;SDS011;11187;49.412;20.956;2023-04-15T11:35:47;12.35;;;11.55;;
22046;SDS011;11187;49.412;20.956;2023-04-15T11:38:21;13.23;;;12.30;;
22046;SDS011;11187;49.412;20.956;2023-04-15T11:41:07;12.57;;;11.68;;
22046;SDS011;11187;49.412;20.956;2023-04-15T11:43:41;12.32;;;11.50;;
22046;SDS011;11187;49.412;20.956;2023-04-15T11:46:34;11.68;;;10.98;;
22046;SDS011;11187;49.412;20.956;2023-04-15T11:49:28;11.90;;;11.20;;
22046;SDS011;11187;49.412;20.956;2023-04-15T11:52:09;11.90;;;11.20;;
22046;SDS011;11187;49.412;20.956;2023-04-15T11:55:05;12.88;;;12.07;;
22046;SDS011;11187;49.412;20.956;2023-04-15T12:01:14;12.40;;;11.57;;
22046;SDS011;11187;49.412;20.956;2023-04-15T12:03:47;12.68;;;11.88;;
22046;SDS011;11187;49.412;20.956;2023-04-15T12:06:43;13.52;;;12.63;;
22046;SDS011;11187;49.412;20.956;2023-04-15T12:09:37;13.98;;;13.07;;
22046;SDS011;11187;49.412;20.956;2023-04-15T12:12:31;14.32;;;13.50;;
22046;SDS011;11187;49.412;20.956;2023-04-15T12:15:25;14.48;;;13.57;;
22046;SDS011;11187;49.412;20.956;2023-04-15T12:17:58;15.82;;;14.82;;
22046;SDS011;11187;49.412;20.956;2023-04-15T12:20:45;16.55;;;15.25;;
22046;SDS011;11187;49.412;20.956;2023-04-15T12:23:18;15.35;;;14.05;;
22046;SDS011;11187;49.412;20.956;2023-04-15T12:26:05;14.45;;;13.45;;
22046;SDS011;11187;49.412;20.956;2023-04-15T12:28:39;12.95;;;12.15;;
22046;SDS011;11187;49.412;20.956;2023-04-15T12:31:26;13.65;;;12.65;;
22046;SDS011;11187;49.412;20.956;2023-04-15T12:34:00;15.40;;;14.30;;
22046;SDS011;11187;49.412;20.956;2023-04-15T12:36:46;15.23;;;14.13;;
22046;SDS011;11187;49.412;20.956;2023-04-15T12:39:23;13.77;;;12.88;;
22046;SDS011;11187;49.412;20.956;2023-04-15T12:42:20;15.60;;;14.57;;
22046;SDS011;11187;49.412;20.956;2023-04-15T12:45:14;12.57;;;11.77;;
22046;SDS011;11187;49.412;20.956;2023-04-15T12:47:47;14.52;;;13.55;;
22046;SDS011;11187;49.412;20.956;2023-04-15T12:50:41;14.38;;;13.32;;
22046;SDS011;11187;49.412;20.956;2023-04-15T12:53:14;15.00;;;13.98;;
22046;SDS011;11187;49.412;20.956;2023-04-15T12:56:08;16.02;;;14.82;;
22046;SDS011;11187;49.412;20.956;2023-04-15T12:58:42;14.13;;;13.23;;
22046;SDS011;11187;49.412;20.956;2023-04-15T13:01:35;14.60;;;13.60;;
22046;SDS011;11187;49.412;20.956;2023-04-15T13:04:09;14.05;;;13.15;;
22046;SDS011;11187;49.412;20.956;2023-04-15T13:07:03;13.82;;;12.93;;
22046;SDS011;11187;49.412;20.956;2023-04-15T13:09:59;12.10;;;11.20;;
22046;SDS011;11187;49.412;20.956;2023-04-15T13:12:53;14.00;;;13.00;;
22046;SDS011;11187;49.412;20.956;2023-04-15T13:15:47;14.63;;;13.63;;
22046;SDS011;11187;49.412;20.956;2023-04-15T13:18:41;13.63;;;12.70;;
22046;SDS011;11187;49.412;20.956;2023-04-15T13:21:14;15.35;;;14.35;;
22046;SDS011;11187;49.412;20.956;2023-04-15T13:24:01;19.20;;;17.30;;
22046;SDS011;11187;49.412;20.956;2023-04-15T13:26:35;17.17;;;15.68;;
22046;SDS011;11187;49.412;20.956;2023-04-15T13:29:22;15.80;;;14.68;;
22046;SDS011;11187;49.412;20.956;2023-04-15T13:31:55;12.85;;;11.85;;
22046;SDS011;11187;49.412;20.956;2023-04-15T13:34:43;15.27;;;14.15;;
22046;SDS011;11187;49.412;20.956;2023-04-15T13:37:19;14.93;;;13.77;;
22046;SDS011;11187;49.412;20.956;2023-04-15T13:40:13;13.77;;;12.77;;
22046;SDS011;11187;49.412;20.956;2023-04-15T13:43:07;14.40;;;13.18;;
22046;SDS011;11187;49.412;20.956;2023-04-15T13:46:01;12.50;;;11.60;;
22046;SDS011;11187;49.412;20.956;2023-04-15T13:48:35;14.88;;;13.73;;
22046;SDS011;11187;49.412;20.956;2023-04-15T13:51:21;13.40;;;12.50;;
22046;SDS011;11187;49.412;20.956;2023-04-15T13:53:54;12.35;;;11.48;;
22046;SDS011;11187;49.412;20.956;2023-04-15T13:56:41;13.32;;;12.45;;
22046;SDS011;11187;49.412;20.956;2023-04-15T13:59:14;15.20;;;14.10;;
22046;SDS011;11187;49.412;20.956;2023-04-15T14:02:08;14.50;;;13.50;;
22046;SDS011;11187;49.412;20.956;2023-04-15T14:04:42;15.07;;;13.65;;
22046;SDS011;11187;49.412;20.956;2023-04-15T14:07:28;14.30;;;13.20;;
22046;SDS011;11187;49.412;20.956;2023-04-15T14:10:03;13.82;;;12.68;;
22046;SDS011;11187;49.412;20.956;2023-04-15T14:12:57;13.70;;;12.40;;
22046;SDS011;11187;49.412;20.956;2023-04-15T14:15:51;15.32;;;13.70;;
22046;SDS011;11187;49.412;20.956;2023-04-15T14:18:27;15.98;;;14.77;;
22046;SDS011;11187;49.412;20.956;2023-04-15T14:21:25;13.45;;;12.45;;
22046;SDS011;11187;49.412;20.956;2023-04-15T14:24:04;14.48;;;13.05;;
22046;SDS011;11187;49.412;20.956;2023-04-15T14:26:58;13.73;;;12.63;;
22046;SDS011;11187;49.412;20.956;2023-04-15T14:29:53;13.27;;;12.27;;
22046;SDS011;11187;49.412;20.956;2023-04-15T14:32:27;13.55;;;12.55;;
22046;SDS011;11187;49.412;20.956;2023-04-15T14:35:21;14.43;;;13.25;;
22046;SDS011;11187;49.412;20.956;2023-04-15T14:37:56;17.50;;;15.55;;
22046;SDS011;11187;49.412;20.956;2023-04-15T14:40:49;14.20;;;12.93;;
22046;SDS011;11187;49.412;20.956;2023-04-15T14:43:43;12.20;;;11.32;;
22046;SDS011;11187;49.412;20.956;2023-04-15T14:46:37;10.77;;;10.07;;
22046;SDS011;11187;49.412;20.956;2023-04-15T14:49:13;11.45;;;10.75;;
22046;SDS011;11187;49.412;20.956;2023-04-15T14:51:59;13.15;;;12.25;;
22046;SDS011;11187;49.412;20.956;2023-04-15T14:54:35;12.85;;;11.95;;
22046;SDS011;11187;49.412;20.956;2023-04-15T14:57:22;13.32;;;12.30;;
22046;SDS011;11187;49.412;20.956;2023-04-15T14:59:55;13.82;;;12.82;;
22046;SDS011;11187;49.412;20.956;2023-04-15T15:02:42;15.07;;;13.57;;
22046;SDS011;11187;49.412;20.956;2023-04-15T15:05:16;13.35;;;12.35;;
22046;SDS011;11187;49.412;20.956;2023-04-15T15:08:09;13.38;;;12.30;;
22046;SDS011;11187;49.412;20.956;2023-04-15T15:11:03;11.65;;;10.95;;
22046;SDS011;11187;49.412;20.956;2023-04-15T15:13:40;11.63;;;10.73;;
22046;SDS011;11187;49.412;20.956;2023-04-15T15:16:26;11.93;;;11.23;;
22046;SDS011;11187;49.412;20.956;2023-04-15T15:19:01;11.20;;;10.50;;
22046;SDS011;11187;49.412;20.956;2023-04-15T15:21:47;11.40;;;10.70;;
22046;SDS011;11187;49.412;20.956;2023-04-15T15:24:21;12.63;;;11.82;;
22046;SDS011;11187;49.412;20.956;2023-04-15T15:27:07;10.57;;;9.88;;
22046;SDS011;11187;49.412;20.956;2023-04-15T15:29:41;10.68;;;9.98;;
22046;SDS011;11187;49.412;20.956;2023-04-15T15:32:27;11.38;;;10.68;;
22046;SDS011;11187;49.412;20.956;2023-04-15T15:35:01;11.32;;;10.43;;
22046;SDS011;11187;49.412;20.956;2023-04-15T15:37:47;10.57;;;9.77;;
22046;SDS011;11187;49.412;20.956;2023-04-15T15:40:21;12.07;;;11.27;;
22046;SDS011;11187;49.412;20.956;2023-04-15T15:43:07;11.10;;;10.30;;
22046;SDS011;11187;49.412;20.956;2023-04-15T15:45:41;12.27;;;11.48;;
22046;SDS011;11187;49.412;20.956;2023-04-15T15:48:30;11.38;;;10.57;;
22046;SDS011;11187;49.412;20.956;2023-04-15T15:51:04;10.95;;;10.25;;
22046;SDS011;11187;49.412;20.956;2023-04-15T15:53:51;11.68;;;10.77;;
22046;SDS011;11187;49.412;20.956;2023-04-15T15:56:25;11.85;;;11.05;;
22046;SDS011;11187;49.412;20.956;2023-04-15T15:59:18;12.10;;;11.27;;
22046;SDS011;11187;49.412;20.956;2023-04-15T16:02:12;12.50;;;11.52;;